Time;durP1;ratioP1;P1;durP2;ratioP2;P2;SDS_P1;SDS_P2;PMS_P1;PMS_P2;Temp;Humidity;BMP_temperature;BMP_pressure;BME280_temperature;BME280_humidity;BME280_pressure;Samples;Min_cycle;Max_cycle;Signal;HPM_P1;HPM_P2
2023/09/17 00:00:07;;;;;;;0.10;0.10;;;14.90;99.90;;;;;;5088443;28;20052;-78
2023/09/17 00:02:33;;;;;;;0.30;0.30;;;14.90;99.90;;;;;;5088854;28;20043;-78
2023/09/17 00:04:58;;;;;;;0.20;0.20;;;14.80;99.90;;;;;;5088077;28;20395;-78
2023/09/17 00:07:24;;;;;;;0.10;0.10;;;14.80;99.90;;;;;;5082448;28;20036;-78
2023/09/17 00:09:49;;;;;;;0.13;0.13;;;14.80;99.90;;;;;;5088797;28;20056;-78
2023/09/17 00:12:15;;;;;;;0.20;0.20;;;14.70;99.90;;;;;;5079031;28;20040;-78
2023/09/17 00:14:41;;;;;;;0.20;0.20;;;14.70;99.90;;;;;;5090970;28;20059;-78
2023/09/17 00:17:07;;;;;;;0.20;0.20;;;14.70;99.90;;;;;;5081479;28;20052;-78
2023/09/17 00:19:32;;;;;;;0.10;0.10;;;14.70;99.90;;;;;;5088416;28;20088;-78
2023/09/17 00:21:58;;;;;;;0.20;0.20;;;14.60;99.90;;;;;;5091929;28;20060;-78
2023/09/17 00:24:24;;;;;;;0.10;0.10;;;14.60;99.90;;;;;;5089536;28;20047;-78
2023/09/17 00:26:50;;;;;;;0.20;0.20;;;14.60;99.90;;;;;;5088103;28;20044;-78
2023/09/17 00:29:16;;;;;;;0.10;0.10;;;14.60;99.90;;;;;;5087947;28;20052;-78
2023/09/17 00:31:43;;;;;;;0.20;0.20;;;14.50;99.90;;;;;;5089641;28;20036;-78
2023/09/17 00:34:08;;;;;;;0.20;0.20;;;14.50;99.90;;;;;;5088785;28;20039;-78
2023/09/17 00:36:34;;;;;;;0.20;0.20;;;14.50;99.90;;;;;;5088527;28;20035;-78
2023/09/17 00:38:59;;;;;;;0.15;0.15;;;14.50;99.90;;;;;;5087744;28;20127;-78
2023/09/17 00:41:26;;;;;;;0.20;0.20;;;14.50;99.90;;;;;;5085559;28;20044;-78
2023/09/17 00:43:51;;;;;;;0.20;0.20;;;14.50;99.90;;;;;;5090196;28;20047;-78
2023/09/17 00:46:19;;;;;;;0.10;0.10;;;14.40;99.90;;;;;;5093192;28;20040;-78
2023/09/17 00:48:45;;;;;;;0.10;0.10;;;14.40;99.90;;;;;;5089061;28;20068;-78
2023/09/17 00:51:11;;;;;;;0.13;0.13;;;14.40;99.90;;;;;;5088003;28;20043;-78
2023/09/17 00:53:37;;;;;;;0.10;0.10;;;14.40;99.90;;;;;;5088555;28;20156;-78
2023/09/17 00:56:03;;;;;;;0.20;0.20;;;14.40;99.90;;;;;;5083169;28;20048;-78
2023/09/17 00:58:31;;;;;;;0.20;0.20;;;14.30;99.90;;;;;;5087977;28;20148;-78
2023/09/17 01:01:00;;;;;;;0.20;0.20;;;14.30;99.90;;;;;;5087239;28;20387;-78
2023/09/17 01:03:27;;;;;;;0.20;0.20;;;14.30;99.90;;;;;;5088267;28;20048;-78
2023/09/17 01:05:54;;;;;;;0.10;0.10;;;14.30;99.90;;;;;;5092946;28;20048;-78
2023/09/17 01:08:20;;;;;;;0.20;0.20;;;14.30;99.90;;;;;;5088418;28;20119;-77
2023/09/17 01:10:48;;;;;;;0.20;0.20;;;14.30;99.90;;;;;;5092644;28;20073;-78
2023/09/17 01:13:14;;;;;;;0.20;0.20;;;14.30;99.90;;;;;;5098644;28;20541;-78
2023/09/17 01:15:40;;;;;;;0.10;0.10;;;14.30;99.90;;;;;;5085972;28;20056;-78
2023/09/17 01:18:07;;;;;;;0.20;0.20;;;14.30;99.90;;;;;;5080745;28;20728;-78
2023/09/17 01:20:39;;;;;;;0.10;0.10;;;14.30;99.90;;;;;;5084967;28;20069;-78
2023/09/17 01:23:29;;;;;;;0.15;0.15;;;14.30;99.90;;;;;;5082778;28;20047;-78
2023/09/17 01:26:05;;;;;;;0.20;0.20;;;14.30;99.90;;;;;;5084152;28;20411;-78
2023/09/17 01:28:31;;;;;;;0.20;0.20;;;14.30;99.90;;;;;;5090238;28;20089;-78
2023/09/17 01:30:57;;;;;;;0.10;0.10;;;14.30;99.90;;;;;;5087826;28;20040;-78
2023/09/17 01:33:23;;;;;;;0.20;0.20;;;14.30;99.90;;;;;;5087683;28;20365;-78
2023/09/17 01:36:11;;;;;;;0.20;0.20;;;14.30;99.90;;;;;;5092154;28;20487;-77
2023/09/17 01:38:46;;;;;;;0.13;0.13;;;14.30;99.90;;;;;;5086663;28;20059;-77
2023/09/17 01:41:12;;;;;;;0.20;0.20;;;14.30;99.90;;;;;;5085640;28;20036;-77
2023/09/17 01:43:40;;;;;;;0.10;0.10;;;14.20;99.90;;;;;;5087633;28;20474;-77
2023/09/17 01:46:07;;;;;;;0.20;0.20;;;14.20;99.90;;;;;;5086181;28;20503;-77
2023/09/17 01:48:35;;;;;;;0.10;0.10;;;14.20;99.90;;;;;;5086429;28;20187;-77
2023/09/17 01:51:02;;;;;;;0.20;0.20;;;14.30;99.90;;;;;;5087559;28;20094;-77
2023/09/17 01:53:28;;;;;;;0.20;0.20;;;14.20;99.90;;;;;;5084715;28;20089;-77
2023/09/17 01:55:56;;;;;;;0.10;0.10;;;14.20;99.90;;;;;;5082698;28;20505;-77
2023/09/17 01:58:23;;;;;;;0.20;0.20;;;14.20;99.90;;;;;;5087769;28;20047;-77
2023/09/17 02:00:49;;;;;;;0.20;0.20;;;14.20;99.90;;;;;;5086420;28;20051;-77
2023/09/17 02:03:14;;;;;;;0.20;0.20;;;14.20;99.90;;;;;;5087265;28;20048;-77
2023/09/17 02:05:40;;;;;;;0.15;0.15;;;14.20;99.90;;;;;;5086775;28;20430;-77
2023/09/17 02:08:06;;;;;;;0.20;0.20;;;14.20;99.90;;;;;;5086071;28;20093;-77
2023/09/17 02:10:32;;;;;;;0.10;0.10;;;14.20;99.90;;;;;;5084642;28;20040;-77
2023/09/17 02:12:57;;;;;;;0.20;0.20;;;14.20;99.90;;;;;;5083691;28;20058;-77
2023/09/17 02:15:23;;;;;;;0.20;0.20;;;14.20;99.90;;;;;;5082957;28;20052;-77
2023/09/17 02:17:52;;;;;;;0.10;0.10;;;14.20;99.90;;;;;;5087149;28;20056;-77
2023/09/17 02:20:18;;;;;;;0.10;0.10;;;14.30;99.90;;;;;;5083850;28;20091;-77
2023/09/17 02:22:44;;;;;;;0.10;0.10;;;14.30;99.90;;;;;;5085754;28;20072;-77
2023/09/17 02:25:10;;;;;;;0.15;0.15;;;14.30;99.90;;;;;;5085382;28;20380;-77
2023/09/17 02:27:38;;;;;;;0.20;0.20;;;14.30;99.90;;;;;;5085263;28;20540;-79
2023/09/17 02:30:04;;;;;;;0.20;0.20;;;14.30;99.90;;;;;;5084381;28;20047;-78
2023/09/17 02:32:30;;;;;;;0.10;0.10;;;14.30;99.90;;;;;;5085173;28;20127;-77
2023/09/17 02:34:57;;;;;;;0.17;0.17;;;14.30;99.90;;;;;;5085259;28;20040;-78
2023/09/17 02:37:23;;;;;;;0.10;0.10;;;14.40;99.90;;;;;;5090483;28;20050;-78
2023/09/17 02:39:49;;;;;;;0.13;0.13;;;14.40;99.90;;;;;;5088131;28;20048;-78
2023/09/17 02:42:15;;;;;;;0.10;0.10;;;14.40;99.90;;;;;;5089360;28;20090;-78
2023/09/17 02:44:42;;;;;;;0.17;0.17;;;14.40;99.90;;;;;;5088859;28;20048;-78
2023/09/17 02:47:08;;;;;;;0.20;0.20;;;14.40;99.90;;;;;;5090959;28;20101;-78
2023/09/17 02:49:33;;;;;;;0.20;0.20;;;14.50;99.90;;;;;;5090415;28;20179;-78
2023/09/17 02:51:59;;;;;;;0.10;0.10;;;14.50;99.90;;;;;;5091794;28;20487;-77
2023/09/17 02:54:24;;;;;;;0.10;0.10;;;14.50;99.90;;;;;;5092405;28;20136;-78
2023/09/17 02:56:52;;;;;;;0.20;0.20;;;14.60;99.90;;;;;;5087511;28;20131;-77
2023/09/17 02:59:18;;;;;;;0.10;0.10;;;14.60;99.90;;;;;;5087251;28;20040;-78
2023/09/17 03:01:43;;;;;;;0.20;0.20;;;14.60;99.90;;;;;;5090611;28;20097;-78
2023/09/17 03:04:09;;;;;;;0.20;0.20;;;14.70;99.90;;;;;;5091111;28;20529;-78
2023/09/17 03:06:35;;;;;;;0.10;0.10;;;14.70;99.90;;;;;;5090452;28;20072;-78
2023/09/17 03:09:01;;;;;;;0.20;0.20;;;14.60;99.90;;;;;;5080019;28;20040;-77
2023/09/17 03:11:28;;;;;;;0.20;0.20;;;14.70;99.90;;;;;;5079829;28;20449;-78
2023/09/17 03:13:55;;;;;;;0.20;0.20;;;14.70;99.90;;;;;;5090596;28;20048;-77
2023/09/17 03:16:21;;;;;;;0.10;0.10;;;14.80;99.90;;;;;;5088673;28;20044;-78
2023/09/17 03:18:47;;;;;;;0.20;0.20;;;14.70;99.90;;;;;;5088653;28;20051;-78
2023/09/17 03:21:12;;;;;;;0.10;0.10;;;14.70;99.90;;;;;;5090787;28;20062;-78
2023/09/17 03:23:38;;;;;;;0.10;0.10;;;14.80;99.90;;;;;;5090738;28;20040;-78
2023/09/17 03:26:05;;;;;;;0.10;0.10;;;14.80;99.90;;;;;;5089462;28;20075;-78
2023/09/17 03:28:31;;;;;;;0.10;0.10;;;14.80;99.90;;;;;;5091534;28;20116;-78
2023/09/17 03:30:58;;;;;;;0.15;0.15;;;14.80;99.90;;;;;;5091445;28;20150;-78
2023/09/17 03:33:23;;;;;;;0.10;0.10;;;14.90;99.90;;;;;;5086913;28;20040;-78
2023/09/17 03:35:51;;;;;;;0.10;0.10;;;14.90;99.90;;;;;;5086668;28;20089;-78
2023/09/17 03:38:17;;;;;;;0.10;0.10;;;14.90;99.90;;;;;;5087914;28;20040;-78
2023/09/17 03:40:43;;;;;;;0.20;0.20;;;14.90;99.90;;;;;;5086573;28;20056;-78
2023/09/17 03:43:08;;;;;;;0.10;0.10;;;15.00;99.90;;;;;;5091425;28;20101;-78
2023/09/17 03:45:34;;;;;;;0.10;0.10;;;14.90;99.90;;;;;;5089575;28;20094;-78
2023/09/17 03:48:01;;;;;;;0.10;0.10;;;15.00;99.90;;;;;;5089083;28;20048;-77
2023/09/17 03:50:30;;;;;;;0.20;0.20;;;15.00;99.90;;;;;;5090402;28;20093;-77
2023/09/17 03:52:58;;;;;;;0.15;0.15;;;15.10;99.90;;;;;;5077658;28;20066;-78
2023/09/17 03:55:24;;;;;;;0.20;0.20;;;15.10;99.90;;;;;;5089493;28;20072;-77
2023/09/17 03:57:51;;;;;;;0.20;0.20;;;15.10;99.90;;;;;;5089510;28;20047;-78
2023/09/17 04:00:18;;;;;;;0.20;0.20;;;15.20;99.90;;;;;;5084221;28;20519;-78
2023/09/17 04:02:44;;;;;;;0.10;0.10;;;15.20;99.90;;;;;;5087714;28;20120;-77
2023/09/17 04:05:13;;;;;;;0.20;0.20;;;15.20;99.90;;;;;;5085854;28;20040;-78
2023/09/17 04:07:41;;;;;;;0.20;0.20;;;15.20;99.90;;;;;;5087566;28;20445;-78
2023/09/17 04:10:07;;;;;;;0.20;0.20;;;15.30;99.90;;;;;;5086396;28;20048;-78
2023/09/17 04:12:34;;;;;;;0.20;0.20;;;15.30;99.90;;;;;;5088597;28;20142;-78
2023/09/17 04:15:00;;;;;;;0.15;0.15;;;15.30;99.90;;;;;;5087989;28;20056;-78
2023/09/17 04:17:26;;;;;;;0.10;0.10;;;15.30;99.90;;;;;;5088576;28;20064;-78
2023/09/17 04:19:52;;;;;;;0.20;0.20;;;15.30;99.90;;;;;;5088838;28;20136;-78
2023/09/17 04:22:18;;;;;;;0.20;0.20;;;15.40;99.90;;;;;;5088207;28;20052;-78
2023/09/17 04:24:44;;;;;;;0.20;0.20;;;15.40;99.90;;;;;;5088765;28;20105;-78
2023/09/17 04:27:11;;;;;;;0.20;0.20;;;15.40;99.90;;;;;;5089894;28;20040;-78
2023/09/17 04:29:37;;;;;;;0.20;0.20;;;15.40;99.90;;;;;;5088892;28;20467;-78
2023/09/17 04:32:03;;;;;;;0.20;0.20;;;15.40;99.90;;;;;;5085213;28;20032;-78
2023/09/17 04:34:29;;;;;;;0.10;0.10;;;15.40;99.90;;;;;;5088168;28;20075;-78
2023/09/17 04:36:58;;;;;;;0.20;0.20;;;15.40;99.90;;;;;;5089098;28;20141;-78
2023/09/17 04:39:25;;;;;;;0.20;0.20;;;15.40;99.90;;;;;;5089783;28;20059;-78
2023/09/17 04:41:50;;;;;;;0.15;0.15;;;15.40;99.90;;;;;;5086691;28;20063;-78
2023/09/17 04:44:16;;;;;;;0.10;0.10;;;15.40;99.90;;;;;;5085895;28;20491;-78
2023/09/17 04:46:45;;;;;;;0.10;0.10;;;15.40;99.90;;;;;;5086237;28;20052;-78
2023/09/17 04:49:12;;;;;;;0.20;0.20;;;15.40;99.90;;;;;;5085047;28;20036;-78
2023/09/17 04:51:37;;;;;;;0.20;0.20;;;15.40;99.90;;;;;;5086317;28;20048;-77
2023/09/17 04:54:04;;;;;;;0.20;0.20;;;15.40;99.90;;;;;;5083442;28;20078;-78
2023/09/17 04:56:30;;;;;;;0.13;0.13;;;15.40;99.90;;;;;;5089865;28;20036;-78
2023/09/17 04:59:00;;;;;;;0.15;0.15;;;15.40;99.90;;;;;;5084192;28;20045;-78
2023/09/17 05:01:26;;;;;;;0.10;0.10;;;15.40;99.90;;;;;;5075483;28;20046;-78
2023/09/17 05:03:52;;;;;;;0.20;0.20;;;15.50;99.90;;;;;;5087268;28;20145;-78
2023/09/17 05:06:18;;;;;;;0.10;0.10;;;15.50;99.90;;;;;;5090523;28;20048;-78
2023/09/17 05:08:43;;;;;;;0.20;0.20;;;15.50;99.90;;;;;;5089483;28;20056;-78
2023/09/17 05:11:09;;;;;;;0.20;0.20;;;15.50;99.90;;;;;;5088986;28;20047;-78
2023/09/17 05:13:35;;;;;;;0.20;0.20;;;15.50;99.90;;;;;;5088795;28;20059;-78
2023/09/17 05:16:01;;;;;;;0.20;0.20;;;15.50;99.90;;;;;;5087705;28;20048;-78
2023/09/17 05:18:26;;;;;;;0.20;0.20;;;15.50;99.90;;;;;;5084672;28;20070;-78
2023/09/17 05:20:54;;;;;;;0.15;0.15;;;15.50;99.90;;;;;;5086368;28;20112;-78
2023/09/17 05:23:23;;;;;;;0.20;0.20;;;15.60;99.90;;;;;;5092382;28;20407;-78
2023/09/17 05:25:50;;;;;;;0.15;0.15;;;15.60;99.90;;;;;;5089531;28;20048;-78
2023/09/17 05:28:15;;;;;;;0.10;0.10;;;15.60;99.90;;;;;;5088330;28;20139;-78
2023/09/17 05:30:41;;;;;;;0.20;0.20;;;15.60;99.90;;;;;;5088623;28;20126;-78
2023/09/17 05:33:07;;;;;;;0.20;0.20;;;15.60;99.90;;;;;;5087693;28;20036;-78
2023/09/17 05:35:34;;;;;;;0.20;0.20;;;15.70;99.90;;;;;;5088438;28;20047;-78
2023/09/17 05:38:00;;;;;;;0.20;0.20;;;15.70;99.90;;;;;;5088482;28;20044;-78
2023/09/17 05:40:27;;;;;;;0.20;0.20;;;15.70;99.90;;;;;;5087546;28;20051;-78
2023/09/17 05:42:52;;;;;;;0.20;0.20;;;15.70;99.90;;;;;;5087750;28;20554;-78
2023/09/17 05:45:18;;;;;;;0.20;0.20;;;15.70;99.90;;;;;;5088393;28;20107;-78
2023/09/17 05:47:44;;;;;;;0.13;0.13;;;15.80;99.90;;;;;;5088107;28;20119;-78
2023/09/17 05:50:13;;;;;;;0.20;0.20;;;15.80;99.90;;;;;;5084893;28;20032;-78
2023/09/17 05:52:39;;;;;;;0.20;0.20;;;15.80;99.90;;;;;;5087366;28;20055;-79
2023/09/17 05:55:05;;;;;;;0.20;0.20;;;15.90;99.90;;;;;;5085607;28;20622;-76
2023/09/17 05:57:31;;;;;;;0.15;0.15;;;15.90;99.90;;;;;;5084352;28;20044;-77
2023/09/17 05:59:58;;;;;;;0.20;0.20;;;15.90;99.90;;;;;;5078763;28;20040;-78
2023/09/17 06:02:24;;;;;;;0.10;0.10;;;15.90;99.90;;;;;;5079649;28;20064;-76
2023/09/17 06:04:53;;;;;;;0.20;0.20;;;16.00;99.90;;;;;;5088106;28;20504;-76
2023/09/17 06:07:19;;;;;;;1.35;0.65;;;16.00;99.90;;;;;;5086893;28;20036;-76
2023/09/17 06:09:45;;;;;;;0.15;0.15;;;16.00;99.90;;;;;;5089126;28;20048;-77
2023/09/17 06:12:12;;;;;;;0.20;0.20;;;16.00;99.90;;;;;;5092790;28;20067;-77
2023/09/17 06:14:37;;;;;;;0.20;0.20;;;16.00;99.90;;;;;;5088163;28;20063;-77
2023/09/17 06:17:03;;;;;;;0.20;0.20;;;16.10;99.90;;;;;;5091926;28;20059;-77
2023/09/17 06:19:29;;;;;;;0.20;0.20;;;16.10;99.90;;;;;;5093120;28;20042;-77
2023/09/17 06:21:55;;;;;;;0.20;0.20;;;16.20;99.90;;;;;;5090429;28;20036;-78
2023/09/17 06:24:20;;;;;;;0.20;0.20;;;16.20;99.90;;;;;;5091996;28;20097;-78
2023/09/17 06:26:46;;;;;;;0.20;0.20;;;16.20;99.90;;;;;;5089288;28;20047;-77
2023/09/17 06:29:12;;;;;;;0.20;0.20;;;16.20;99.90;;;;;;5087296;28;20185;-77
2023/09/17 06:31:38;;;;;;;0.20;0.20;;;16.20;99.90;;;;;;5095845;28;20125;-78
2023/09/17 06:34:04;;;;;;;0.20;0.20;;;16.30;99.90;;;;;;5087514;28;20071;-77
2023/09/17 06:36:30;;;;;;;0.20;0.20;;;16.30;99.90;;;;;;5091427;28;20062;-78
2023/09/17 06:38:55;;;;;;;0.20;0.20;;;16.30;99.90;;;;;;5093327;28;20051;-77
2023/09/17 06:41:21;;;;;;;0.20;0.20;;;16.40;99.90;;;;;;5088463;28;20042;-78
2023/09/17 06:43:47;;;;;;;0.20;0.20;;;16.40;99.90;;;;;;5088651;28;20111;-79
2023/09/17 06:46:13;;;;;;;0.20;0.20;;;16.40;99.90;;;;;;5082775;28;20093;-79
2023/09/17 06:48:38;;;;;;;0.10;0.10;;;16.40;99.90;;;;;;5089883;28;20048;-79
2023/09/17 06:51:04;;;;;;;0.20;0.20;;;16.50;99.90;;;;;;5087089;28;20082;-79
2023/09/17 06:53:30;;;;;;;0.13;0.13;;;16.50;99.90;;;;;;5092554;28;20381;-79
2023/09/17 06:55:58;;;;;;;0.20;0.20;;;16.50;99.90;;;;;;5087659;28;20070;-78
2023/09/17 06:58:24;;;;;;;0.20;0.20;;;16.50;99.90;;;;;;5088664;28;20471;-79
2023/09/17 07:00:50;;;;;;;0.20;0.20;;;16.60;99.90;;;;;;5085339;28;20049;-80
2023/09/17 07:03:15;;;;;;;0.20;0.20;;;16.50;99.90;;;;;;5087609;28;20674;-80
2023/09/17 07:05:41;;;;;;;0.10;0.10;;;16.60;99.90;;;;;;5090298;28;20535;-79
2023/09/17 07:08:07;;;;;;;0.20;0.20;;;16.70;99.90;;;;;;5090282;28;20113;-79
2023/09/17 07:10:33;;;;;;;0.20;0.20;;;16.70;99.90;;;;;;5084738;28;20048;-79
2023/09/17 07:12:59;;;;;;;0.20;0.20;;;16.80;99.90;;;;;;5089071;28;20487;-80
2023/09/17 07:15:28;;;;;;;0.20;0.20;;;16.80;99.90;;;;;;5087293;28;20040;-80
2023/09/17 07:17:54;;;;;;;0.30;0.30;;;16.90;99.90;;;;;;5100602;27;20097;-80
2023/09/17 07:20:19;;;;;;;0.15;0.15;;;17.00;99.90;;;;;;5090399;28;20044;-79
2023/09/17 07:22:48;;;;;;;0.20;0.20;;;17.00;99.90;;;;;;5089939;28;20084;-79
2023/09/17 07:25:14;;;;;;;0.20;0.20;;;17.10;99.90;;;;;;5101138;27;20054;-79
2023/09/17 07:27:40;;;;;;;0.20;0.20;;;17.20;99.90;;;;;;5086882;28;20140;-79
2023/09/17 07:30:06;;;;;;;0.10;0.10;;;17.20;99.90;;;;;;5100747;28;20488;-79
2023/09/17 07:32:32;;;;;;;0.20;0.20;;;17.30;99.90;;;;;;5090531;28;20044;-79
2023/09/17 07:35:01;;;;;;;0.20;0.20;;;17.30;99.90;;;;;;5086050;28;20066;-79
2023/09/17 07:37:27;;;;;;;0.20;0.20;;;17.40;99.90;;;;;;5085044;28;20036;-79
2023/09/17 07:39:58;;;;;;;0.20;0.20;;;17.50;99.90;;;;;;5084117;28;20046;-79
2023/09/17 07:42:24;;;;;;;0.20;0.20;;;17.60;99.90;;;;;;5085250;28;20044;-79
2023/09/17 07:44:49;;;;;;;0.20;0.20;;;17.60;99.90;;;;;;5091018;28;20551;-79
2023/09/17 07:47:17;;;;;;;0.20;0.20;;;17.70;99.90;;;;;;5088937;28;20040;-79
2023/09/17 07:49:43;;;;;;;0.20;0.20;;;17.80;99.90;;;;;;5088495;28;20073;-79
2023/09/17 07:52:08;;;;;;;0.20;0.20;;;17.90;99.90;;;;;;5083467;28;20028;-79
2023/09/17 07:54:39;;;;;;;0.20;0.20;;;17.90;99.90;;;;;;5085295;28;20101;-80
2023/09/17 07:57:12;;;;;;;0.20;0.20;;;18.00;99.90;;;;;;5071167;28;20093;-80
2023/09/17 07:59:38;;;;;;;0.20;0.20;;;18.00;99.90;;;;;;5069599;28;20044;-79
2023/09/17 08:02:04;;;;;;;0.17;0.17;;;18.10;99.90;;;;;;5070451;28;20041;-79
2023/09/17 08:04:30;;;;;;;0.30;0.30;;;18.10;99.90;;;;;;5089265;28;20407;-80
2023/09/17 08:06:56;;;;;;;0.20;0.20;;;18.20;99.90;;;;;;5089552;28;20072;-79
2023/09/17 08:09:23;;;;;;;0.20;0.20;;;18.20;99.90;;;;;;5090350;28;20055;-79
2023/09/17 08:11:49;;;;;;;0.20;0.20;;;18.20;99.90;;;;;;5087344;28;20048;-79
2023/09/17 08:14:15;;;;;;;0.20;0.20;;;18.30;99.90;;;;;;5069312;28;20135;-79
2023/09/17 08:16:40;;;;;;;0.30;0.30;;;18.30;99.90;;;;;;5073155;28;20179;-80
2023/09/17 08:19:06;;;;;;;0.20;0.20;;;18.40;99.90;;;;;;5092031;28;20048;-79
2023/09/17 08:21:33;;;;;;;0.20;0.20;;;18.40;99.90;;;;;;5090938;28;20051;-80
2023/09/17 08:23:59;;;;;;;0.20;0.20;;;18.40;99.90;;;;;;5099790;28;20055;-80
2023/09/17 08:26:27;;;;;;;0.20;0.20;;;18.50;99.90;;;;;;5088663;28;20083;-80
2023/09/17 08:28:55;;;;;;;0.20;0.20;;;18.50;99.90;;;;;;5085865;28;20052;-80
2023/09/17 08:31:25;;;;;;;0.20;0.20;;;18.50;99.90;;;;;;5069697;28;20071;-80
2023/09/17 08:33:52;;;;;;;0.20;0.20;;;18.60;99.90;;;;;;5072231;28;20141;-80
2023/09/17 08:36:21;;;;;;;0.20;0.20;;;18.60;99.90;;;;;;5081714;28;20040;-80
2023/09/17 08:38:50;;;;;;;0.20;0.20;;;18.60;99.90;;;;;;5092359;28;20087;-80
2023/09/17 08:41:19;;;;;;;0.20;0.20;;;18.70;99.90;;;;;;5099007;28;20073;-80
2023/09/17 08:43:46;;;;;;;0.13;0.13;;;18.70;99.90;;;;;;5101045;28;20619;-80
2023/09/17 08:46:12;;;;;;;0.10;0.10;;;18.70;99.90;;;;;;5089481;28;20566;-78
2023/09/17 08:48:38;;;;;;;0.20;0.20;;;18.70;99.90;;;;;;5090795;28;20058;-79
2023/09/17 08:51:05;;;;;;;0.10;0.10;;;18.80;99.90;;;;;;5094807;28;20048;-78
2023/09/17 08:53:37;;;;;;;0.20;0.20;;;18.90;99.90;;;;;;5085041;28;20101;-78
2023/09/17 08:56:05;;;;;;;0.20;0.20;;;18.90;99.90;;;;;;5084499;28;20067;-78
2023/09/17 08:58:36;;;;;;;0.20;0.20;;;18.90;99.90;;;;;;5092623;28;20050;-79
2023/09/17 09:01:04;;;;;;;0.20;0.20;;;18.90;99.90;;;;;;5088439;28;20939;-78
2023/09/17 09:03:35;;;;;;;0.20;0.20;;;18.90;99.90;;;;;;5080483;28;20047;-78
2023/09/17 09:06:03;;;;;;;0.20;0.20;;;18.90;99.90;;;;;;5107672;28;20047;-78
2023/09/17 09:08:30;;;;;;;0.20;0.20;;;18.90;99.90;;;;;;5109850;28;20039;-78
2023/09/17 09:10:56;;;;;;;0.20;0.20;;;18.90;99.90;;;;;;5107349;28;20123;-78
2023/09/17 09:13:22;;;;;;;0.20;0.20;;;18.90;99.90;;;;;;5108733;28;20040;-78
2023/09/17 09:15:48;;;;;;;0.20;0.20;;;18.90;99.90;;;;;;5101269;28;20491;-78
2023/09/17 09:18:14;;;;;;;0.20;0.20;;;18.90;99.90;;;;;;5107838;28;20043;-78
2023/09/17 09:20:41;;;;;;;0.20;0.20;;;18.90;99.90;;;;;;5107964;28;20043;-78
2023/09/17 09:23:08;;;;;;;0.20;0.20;;;18.90;99.90;;;;;;5106350;28;20047;-78
2023/09/17 09:25:34;;;;;;;0.20;0.20;;;18.90;99.90;;;;;;5105679;28;20340;-78
2023/09/17 09:28:01;;;;;;;0.20;0.20;;;18.90;99.90;;;;;;5091189;28;20482;-78
2023/09/17 09:30:28;;;;;;;0.10;0.10;;;18.90;99.90;;;;;;5087129;28;20051;-79
2023/09/17 09:32:55;;;;;;;0.20;0.20;;;18.90;99.90;;;;;;5087767;28;21018;-80
2023/09/17 09:35:22;;;;;;;0.20;0.20;;;18.90;99.90;;;;;;5088766;28;20044;-80
2023/09/17 09:37:48;;;;;;;0.20;0.20;;;19.00;99.90;;;;;;5095138;28;20063;-80
2023/09/17 09:40:14;;;;;;;0.20;0.20;;;19.00;99.90;;;;;;5093699;28;20044;-80
2023/09/17 09:42:46;;;;;;;0.25;0.25;;;19.00;99.90;;;;;;5088285;28;20047;-79
2023/09/17 09:45:15;;;;;;;0.20;0.20;;;19.00;99.90;;;;;;5081863;28;20086;-79
2023/09/17 09:47:47;;;;;;;0.20;0.20;;;19.10;99.90;;;;;;5088551;28;20044;-80
2023/09/17 09:50:26;;;;;;;0.20;0.20;;;19.10;99.90;;;;;;5088161;28;20044;-79
2023/09/17 09:52:53;;;;;;;0.20;0.20;;;19.10;99.90;;;;;;5088944;28;20031;-79
2023/09/17 09:55:25;;;;;;;0.20;0.20;;;19.10;99.90;;;;;;5088475;28;20039;-79
2023/09/17 09:57:51;;;;;;;0.20;0.20;;;19.10;99.90;;;;;;5088860;28;20066;-79
2023/09/17 10:00:26;;;;;;;0.20;0.20;;;19.10;99.90;;;;;;5087176;28;20074;-80
2023/09/17 10:02:55;;;;;;;0.20;0.20;;;19.10;99.90;;;;;;5088213;28;20044;-79
2023/09/17 10:05:35;;;;;;;0.20;0.20;;;19.10;99.90;;;;;;5078932;28;20052;-81
2023/09/17 10:08:04;;;;;;;0.20;0.20;;;19.20;99.90;;;;;;5086699;28;20386;-80
2023/09/17 10:10:30;;;;;;;0.20;0.20;;;19.20;99.90;;;;;;5088339;28;20433;-80
2023/09/17 10:12:56;;;;;;;0.20;0.20;;;19.20;99.90;;;;;;5085804;28;20040;-80
2023/09/17 10:15:22;;;;;;;0.20;0.20;;;19.30;99.90;;;;;;5086426;28;20457;-80
2023/09/17 10:17:49;;;;;;;0.20;0.20;;;19.30;99.90;;;;;;5087690;28;20048;-80
2023/09/17 10:20:18;;;;;;;0.20;0.20;;;19.30;99.90;;;;;;5087322;28;20048;-79
2023/09/17 10:22:46;;;;;;;0.20;0.20;;;19.30;99.90;;;;;;5091738;28;20067;-80
2023/09/17 10:25:14;;;;;;;0.20;0.20;;;19.40;99.90;;;;;;5086833;28;20130;-80
2023/09/17 10:27:43;;;;;;;0.20;0.20;;;19.40;99.90;;;;;;5086638;28;20483;-79
2023/09/17 10:30:10;;;;;;;0.20;0.20;;;19.40;99.90;;;;;;5086643;28;20131;-80
2023/09/17 10:32:37;;;;;;;0.20;0.20;;;19.40;99.90;;;;;;5086745;28;20044;-80
2023/09/17 10:35:05;;;;;;;0.20;0.20;;;19.50;99.90;;;;;;5089333;28;20048;-80
2023/09/17 10:37:33;;;;;;;0.20;0.20;;;19.50;99.90;;;;;;5088842;28;20047;-80
2023/09/17 10:40:01;;;;;;;0.20;0.20;;;19.50;99.90;;;;;;5087267;28;20052;-80
2023/09/17 10:42:29;;;;;;;0.20;0.20;;;19.50;99.90;;;;;;5088063;28;20064;-80
2023/09/17 10:44:57;;;;;;;0.20;0.20;;;19.50;99.90;;;;;;5087742;28;20296;-80
2023/09/17 10:47:24;;;;;;;0.20;0.20;;;19.50;99.90;;;;;;5087385;28;20115;-80
2023/09/17 10:49:50;;;;;;;0.20;0.20;;;19.60;99.90;;;;;;5087325;28;20044;-80
2023/09/17 10:52:17;;;;;;;0.20;0.20;;;19.60;99.90;;;;;;5089655;28;20077;-80
2023/09/17 10:54:44;;;;;;;0.20;0.20;;;19.50;99.90;;;;;;5087203;28;20060;-80
2023/09/17 10:57:35;;;;;;;0.20;0.20;;;19.60;99.90;;;;;;5092363;28;20040;-80
2023/09/17 11:00:04;;;;;;;0.20;0.20;;;19.60;99.90;;;;;;5091506;28;20072;-81
2023/09/17 11:02:32;;;;;;;0.20;0.20;;;19.60;99.90;;;;;;5091692;28;20069;-80
2023/09/17 11:05:00;;;;;;;0.20;0.20;;;19.70;99.90;;;;;;5088002;28;20040;-80
2023/09/17 11:07:27;;;;;;;0.20;0.20;;;19.70;99.90;;;;;;5071927;28;20467;-78
2023/09/17 11:09:53;;;;;;;0.13;0.13;;;19.80;99.90;;;;;;5070137;28;20060;-80
2023/09/17 11:12:22;;;;;;;0.20;0.20;;;19.80;99.90;;;;;;5086783;28;20374;-80
2023/09/17 11:14:48;;;;;;;0.20;0.20;;;19.80;99.90;;;;;;5090217;28;20060;-80
2023/09/17 11:17:18;;;;;;;0.20;0.20;;;19.80;99.90;;;;;;5091040;28;20147;-79
2023/09/17 11:19:44;;;;;;;0.20;0.20;;;19.80;99.90;;;;;;5090723;28;20048;-80
2023/09/17 11:22:12;;;;;;;0.10;0.10;;;19.80;99.90;;;;;;5091657;28;20055;-80
2023/09/17 11:24:38;;;;;;;0.20;0.20;;;19.80;99.90;;;;;;5090636;28;20130;-80
2023/09/17 11:27:11;;;;;;;0.20;0.20;;;19.80;99.90;;;;;;5093965;28;20185;-79
2023/09/17 11:29:39;;;;;;;0.20;0.20;;;19.80;99.90;;;;;;5090271;28;20129;-79
2023/09/17 11:32:05;;;;;;;0.20;0.20;;;19.80;99.90;;;;;;5091417;28;20498;-79
2023/09/17 11:34:32;;;;;;;0.20;0.20;;;19.90;99.90;;;;;;5090749;28;20048;-79
2023/09/17 11:36:58;;;;;;;0.20;0.20;;;20.00;99.90;;;;;;5090556;28;20424;-79
2023/09/17 11:39:24;;;;;;;0.20;0.20;;;20.10;99.90;;;;;;5091268;28;20163;-80
2023/09/17 11:42:00;;;;;;;0.20;0.20;;;20.20;99.90;;;;;;5092789;28;20491;-79
2023/09/17 11:44:26;;;;;;;0.15;0.15;;;20.20;99.90;;;;;;5089331;28;20052;-79
2023/09/17 11:46:51;;;;;;;0.20;0.20;;;20.30;99.90;;;;;;5091016;28;20040;-79
2023/09/17 11:49:18;;;;;;;0.20;0.20;;;20.30;99.90;;;;;;5091360;28;20068;-80
2023/09/17 11:51:45;;;;;;;0.20;0.20;;;20.30;99.90;;;;;;5090025;28;20044;-79
2023/09/17 11:54:15;;;;;;;0.20;0.20;;;20.30;99.90;;;;;;5091380;28;20124;-79
2023/09/17 11:56:53;;;;;;;0.20;0.20;;;20.30;99.90;;;;;;5090291;28;20111;-80
2023/09/17 11:59:20;;;;;;;0.20;0.20;;;20.30;99.90;;;;;;5091764;28;20051;-80
2023/09/17 12:01:54;;;;;;;0.20;0.20;;;20.30;99.90;;;;;;5090392;28;20051;-80
2023/09/17 12:04:25;;;;;;;0.20;0.20;;;20.30;99.90;;;;;;5090317;28;20048;-80
2023/09/17 12:06:52;;;;;;;0.20;0.20;;;20.20;99.90;;;;;;5082231;28;20040;-81
2023/09/17 12:09:31;;;;;;;0.20;0.20;;;20.20;99.90;;;;;;5089971;28;20036;-80
2023/09/17 12:11:58;;;;;;;0.20;0.20;;;20.20;99.90;;;;;;5090508;28;20055;-80
2023/09/17 12:14:24;;;;;;;0.20;0.20;;;20.20;99.90;;;;;;5086322;28;20093;-80
2023/09/17 12:16:50;;;;;;;0.20;0.20;;;20.20;99.90;;;;;;5078986;28;20142;-80
2023/09/17 12:19:20;;;;;;;0.20;0.20;;;20.20;99.90;;;;;;5089355;28;20047;-80
2023/09/17 12:21:48;;;;;;;0.20;0.20;;;20.10;99.90;;;;;;5090217;28;20132;-80
2023/09/17 12:24:28;;;;;;;0.20;0.20;;;20.20;99.90;;;;;;5090472;28;20055;-80
2023/09/17 12:27:19;;;;;;;0.20;0.20;;;20.20;99.90;;;;;;5074473;28;20071;-80
2023/09/17 12:29:45;;;;;;;;;;;20.40;99.90;;;;;;5080748;28;20513;-81
2023/09/17 12:32:13;;;;;;;0.20;0.20;;;20.50;99.90;;;;;;5090268;28;20318;-80
2023/09/17 12:34:39;;;;;;;0.20;0.20;;;20.80;99.90;;;;;;5087866;28;20048;-81
2023/09/17 12:37:05;;;;;;;0.20;0.20;;;21.10;99.90;;;;;;5091380;28;20515;-81
2023/09/17 12:39:31;;;;;;;0.20;0.20;;;21.50;99.90;;;;;;5080749;28;20044;-78
2023/09/17 12:41:57;;;;;;;0.20;0.20;;;21.70;99.90;;;;;;5083367;28;20062;-81
2023/09/17 12:44:26;;;;;;;0.20;0.20;;;21.80;99.90;;;;;;5086991;28;20040;-81
2023/09/17 12:46:52;;;;;;;0.20;0.20;;;21.90;99.90;;;;;;5089372;28;20044;-80